»·PEaware :: UAL255 KJAC-KDEN

UAL255 :: KJAC-KDEN

FLIGHT INFORMATION

Flight Status: Arrived
Operator:
United Airlines
More flights by this operator :: More flights under this callsign
Pilot: Anonymous 30951 (30951)
Aircraft: BOEING 737-800
(B738)
More flights by this aircraft type
Origin: KJAC Jackson Hole
United States
Destination: KDEN Denver Intl
United States
More flights between these airports :: More routes between these airports
Route: +ALPIN2 KICNE OCS MJANE FLATI1
File this flight plan on PilotEdge
Remarks:
Altitude:
(Current/Filed)
39,000ft
Speed:
(Current/Filed)
463kts
Departed: 01-Aug-20 09:16 AM
Arrived: 01-Aug-20 10:15 AM
Distance/Time
Traveled:
352nm/0:59
Distance/Time
To Go:
Arrived

Flight Plot

Page will automatically refresh every two minutes.


Map Options




Map Legend


Flown Route
Filed Route
Departure Airport
Arrival Airport
Navaid (VOR, NDB)
Fix

Horizontal Profiles

Position Reports

Time Latitude Longitude Heading Altitude Ground
Speed
01-Aug-20 08:39 43.602730 -110.737442 110 6428ft 0kts
01-Aug-20 08:40 43.602730 -110.737442 110 6428ft 0kts
01-Aug-20 08:41 43.602730 -110.737442 110 6428ft 0kts
01-Aug-20 08:42 43.602730 -110.737442 110 6428ft 0kts
01-Aug-20 08:43 43.602730 -110.737442 110 6428ft 0kts
01-Aug-20 08:44 43.602730 -110.737442 110 6428ft 0kts
01-Aug-20 08:45 43.602730 -110.737442 110 6428ft 0kts
01-Aug-20 08:46 43.602730 -110.737442 110 6428ft 0kts
01-Aug-20 08:47 43.602730 -110.737442 110 6428ft 0kts
01-Aug-20 08:48 43.602730 -110.737442 110 6428ft 0kts
01-Aug-20 08:49 43.602730 -110.737442 110 6428ft 0kts
01-Aug-20 08:50 43.602730 -110.737442 110 6428ft 0kts
01-Aug-20 08:51 43.602730 -110.737442 110 6428ft 0kts
01-Aug-20 08:52 43.602730 -110.737442 110 6428ft 0kts
01-Aug-20 08:53 43.602730 -110.737442 110 6428ft 0kts
01-Aug-20 08:54 43.602730 -110.737443 110 6428ft 0kts
01-Aug-20 08:55 43.602868 -110.737958 109 6428ft 2kts
01-Aug-20 08:56 43.602641 -110.738456 18 6426ft 0kts
01-Aug-20 08:57 43.602641 -110.738456 18 6426ft 0kts
01-Aug-20 08:58 43.602642 -110.738456 18 6426ft 0kts
01-Aug-20 08:59 43.602663 -110.738445 18 6426ft 1kts
01-Aug-20 09:00 43.605956 -110.736840 19 6433ft 21kts
01-Aug-20 09:01 43.610984 -110.734391 18 6444ft 19kts
01-Aug-20 09:02 43.614792 -110.732596 347 6451ft 0kts
01-Aug-20 09:03 43.614793 -110.732596 347 6451ft 0kts
01-Aug-20 09:04 43.614793 -110.732596 347 6451ft 0kts
01-Aug-20 09:05 43.614793 -110.732596 347 6451ft 0kts
01-Aug-20 09:06 43.614793 -110.732596 347 6451ft 0kts
01-Aug-20 09:07 43.614793 -110.732596 347 6451ft 0kts
01-Aug-20 09:08 43.614793 -110.732596 347 6451ft 0kts
01-Aug-20 09:09 43.614793 -110.732596 347 6451ft 0kts
01-Aug-20 09:10 43.614793 -110.732596 347 6451ft 0kts
01-Aug-20 09:11 43.614793 -110.732596 347 6451ft 0kts
01-Aug-20 09:12 43.614793 -110.732596 347 6451ft 0kts
01-Aug-20 09:13 43.614848 -110.734098 201 6449ft 0kts
01-Aug-20 09:14 43.614848 -110.734098 201 6449ft 0kts
01-Aug-20 09:15 43.613625 -110.734707 198 6445ft 54kts
01-Aug-20 09:16 43.575989 -110.754300 216 7918ft 177kts
01-Aug-20 09:17 43.522111 -110.795908 202 9772ft 276kts
01-Aug-20 09:18 43.441681 -110.842998 203 12172ft 355kts
01-Aug-20 09:19 43.347409 -110.896967 204 15526ft 378kts
01-Aug-20 09:20 43.243999 -110.924325 172 18651ft 403kts
01-Aug-20 09:21 43.137394 -110.870803 144 21393ft 428kts
01-Aug-20 09:22 43.043680 -110.764585 139 23823ft 447kts
01-Aug-20 09:23 42.949075 -110.649390 138 26027ft 465kts
01-Aug-20 09:24 42.851499 -110.529041 138 28011ft 481kts
01-Aug-20 09:25 42.751626 -110.405849 138 30222ft 485kts
01-Aug-20 09:26 42.652368 -110.283745 139 32606ft 480kts
01-Aug-20 09:27 42.553533 -110.162657 140 34782ft 476kts
01-Aug-20 09:28 42.456110 -110.043900 140 36716ft 473kts
01-Aug-20 09:29 42.358293 -109.925202 140 38341ft 473kts
01-Aug-20 09:30 42.260347 -109.806880 140 39397ft 481kts
01-Aug-20 09:31 42.158821 -109.684754 140 39392ft 491kts
01-Aug-20 09:32 42.057456 -109.563330 140 39393ft 488kts
01-Aug-20 09:33 41.955834 -109.442163 140 39393ft 490kts
01-Aug-20 09:34 41.853439 -109.320586 141 39393ft 490kts
01-Aug-20 09:35 41.751602 -109.200132 141 39393ft 491kts
01-Aug-20 09:36 41.649179 -109.079602 141 39393ft 492kts
01-Aug-20 09:37 41.566619 -108.936848 114 39395ft 497kts
01-Aug-20 09:38 41.512262 -108.767217 112 39393ft 496kts
01-Aug-20 09:39 41.458398 -108.597659 112 39393ft 496kts
01-Aug-20 09:40 41.404511 -108.428722 112 39391ft 496kts
01-Aug-20 09:41 41.356618 -108.258954 107 39389ft 496kts
01-Aug-20 09:42 41.313567 -108.084665 107 39401ft 496kts
01-Aug-20 09:43 41.270707 -107.910478 107 39411ft 495kts
01-Aug-20 09:45 41.227919 -107.737381 106 39412ft 495kts
01-Aug-20 09:46 41.184651 -107.563522 106 39411ft 495kts
01-Aug-20 09:47 41.141169 -107.390040 106 39412ft 495kts
01-Aug-20 09:48 41.096813 -107.217330 107 39411ft 495kts
01-Aug-20 09:49 41.052533 -107.044857 107 39411ft 495kts
01-Aug-20 09:50 41.008300 -106.872514 107 39445ft 494kts
01-Aug-20 09:51 40.964040 -106.700955 106 38744ft 492kts
01-Aug-20 09:52 40.919940 -106.531129 106 35814ft 486kts
01-Aug-20 09:53 40.876582 -106.365283 106 32467ft 480kts
01-Aug-20 09:54 40.828012 -106.203546 112 30220ft 479kts
01-Aug-20 09:55 40.772328 -106.045661 112 27931ft 459kts
01-Aug-20 09:56 40.720020 -105.898447 112 25800ft 444kts
01-Aug-20 09:57 40.667325 -105.752106 111 23570ft 426kts
01-Aug-20 09:58 40.617686 -105.614662 111 21502ft 425kts
01-Aug-20 09:59 40.568632 -105.479496 111 19434ft 396kts
01-Aug-20 10:00 40.520234 -105.346788 112 18632ft 396kts
01-Aug-20 10:01 40.473685 -105.219668 112 16696ft 359kts
01-Aug-20 10:01 40.445715 -105.124282 103 15893ft 327kts
01-Aug-20 10:03 40.414587 -104.992951 104 14974ft 309kts
01-Aug-20 10:04 40.390721 -104.893601 103 14714ft 270kts
01-Aug-20 10:04 40.372115 -104.815482 103 13793ft 271kts
01-Aug-20 10:05 40.335938 -104.728862 136 12465ft 285kts
01-Aug-20 10:07 40.255054 -104.682875 178 10831ft 266kts
01-Aug-20 10:07 40.196267 -104.683267 180 9978ft 237kts
01-Aug-20 10:08 40.136843 -104.684007 180 9614ft 210kts
01-Aug-20 10:09 40.080692 -104.684706 180 8825ft 199kts
01-Aug-20 10:10 40.024993 -104.685334 180 7981ft 198kts
01-Aug-20 10:11 39.970716 -104.685959 180 6910ft 184kts
01-Aug-20 10:12 39.925916 -104.686481 180 6073ft 155kts
01-Aug-20 10:13 39.884828 -104.686978 180 5445ft 91kts
01-Aug-20 10:14 39.876230 -104.685613 149 5444ft 0kts
01-Aug-20 10:15 39.876012 -104.685456 151 5444ft 6kts
01-Aug-20 10:16 39.873389 -104.683762 183 5444ft 15kts
01-Aug-20 10:17 39.867205 -104.683875 179 5444ft 24kts
01-Aug-20 10:18 39.860847 -104.683933 177 5444ft 19kts
01-Aug-20 10:19 39.860659 -104.681186 68 5444ft 7kts
01-Aug-20 10:20 39.859858 -104.678357 177 5444ft 4kts
01-Aug-20 10:21 39.859375 -104.678370 179 5444ft 0kts

Navigation Log

Ident Type
Flight plan parsing failed, navigation log unavailable